createdAt,value
2018-01-06T00:00:40.095Z,11.60
2018-01-06T00:03:12.475Z,11.50
2018-01-06T00:05:43.095Z,11.50
2018-01-06T00:08:15.575Z,11.40
2018-01-06T00:10:47.417Z,11.30
2018-01-06T00:13:19.078Z,11.30
2018-01-06T00:15:52.378Z,11.20
2018-01-06T00:18:26.178Z,11.20
2018-01-06T00:20:58.261Z,11.10
2018-01-06T00:23:29.800Z,11.00
2018-01-06T00:26:00.940Z,11.00
2018-01-06T00:28:34.954Z,10.90
2018-01-06T00:31:09.049Z,10.80
2018-01-06T00:33:40.408Z,10.80
2018-01-06T00:36:12.888Z,10.80
2018-01-06T00:38:45.492Z,10.60
2018-01-06T00:41:18.748Z,10.60
2018-01-06T00:43:55.268Z,10.50
2018-01-06T00:46:26.770Z,10.50
2018-01-06T00:48:58.828Z,10.40
2018-01-06T00:51:30.387Z,10.30
2018-01-06T00:54:02.309Z,10.20
2018-01-06T00:56:33.188Z,10.20
2018-01-06T00:59:04.228Z,10.20
2018-01-06T01:01:36.088Z,10.20
2018-01-06T01:04:07.128Z,10.10
2018-01-06T01:06:39.268Z,10.10
2018-01-06T01:09:10.628Z,10.10
2018-01-06T01:11:44.248Z,10.00
2018-01-06T01:14:14.988Z,10.00
2018-01-06T01:16:46.528Z,9.90
2018-01-06T01:19:19.288Z,10.00
2018-01-06T01:21:50.968Z,10.00
2018-01-06T01:24:23.848Z,10.00
2018-01-06T01:26:57.028Z,9.90
2018-01-06T01:29:28.388Z,9.90
2018-01-06T01:32:01.254Z,9.80
2018-01-06T01:34:31.787Z,9.80
2018-01-06T01:37:06.208Z,9.90
2018-01-06T01:39:36.748Z,9.80
2018-01-06T01:42:07.568Z,9.90
2018-01-06T01:44:39.248Z,9.90
2018-01-06T01:47:10.368Z,9.90
2018-01-06T01:49:45.808Z,9.90
2018-01-06T01:52:16.288Z,9.90
2018-01-06T01:54:48.928Z,9.90
2018-01-06T01:57:19.648Z,9.90
2018-01-06T01:59:51.727Z,9.80
2018-01-06T02:02:22.308Z,9.80
2018-01-06T02:04:55.948Z,9.80
2018-01-06T02:07:29.849Z,9.80
2018-01-06T02:10:01.408Z,9.80
2018-01-06T02:12:33.768Z,9.80
2018-01-06T02:15:05.728Z,9.90
2018-01-06T02:17:37.409Z,9.80
2018-01-06T02:20:09.168Z,9.90
2018-01-06T02:22:40.408Z,9.90
2018-01-06T02:25:11.968Z,9.90
2018-01-06T02:27:42.888Z,9.90
2018-01-06T02:30:13.949Z,9.90
2018-01-06T02:32:49.288Z,9.90
2018-01-06T02:35:20.627Z,9.90
2018-01-06T02:37:53.613Z,10.00
2018-01-06T02:40:27.708Z,9.90
2018-01-06T02:43:00.288Z,9.90
2018-01-06T02:45:31.129Z,9.90
2018-01-06T02:48:07.390Z,9.90
2018-01-06T02:50:42.108Z,9.90
2018-01-06T02:53:13.968Z,9.80
2018-01-06T02:55:45.128Z,9.80
2018-01-06T02:58:17.388Z,9.80
2018-01-06T03:00:53.948Z,9.90
2018-01-06T03:03:25.408Z,9.90
2018-01-06T03:05:56.148Z,9.80
2018-01-06T03:08:28.409Z,9.90
2018-01-06T03:10:59.308Z,9.90
2018-01-06T03:13:32.227Z,9.90
2018-01-06T03:16:04.708Z,9.90
2018-01-06T03:18:37.588Z,9.80
2018-01-06T03:21:08.828Z,9.80
2018-01-06T03:23:39.988Z,9.70
2018-01-06T03:26:10.808Z,9.70
2018-01-06T03:28:41.737Z,9.70
2018-01-06T03:31:12.709Z,9.70
2018-01-06T03:33:44.747Z,9.70
2018-01-06T03:36:15.688Z,9.60
2018-01-06T03:38:47.307Z,9.60
2018-01-06T03:41:22.688Z,9.60
2018-01-06T03:43:53.929Z,9.50
2018-01-06T03:46:25.989Z,9.50
2018-01-06T03:49:00.728Z,9.50
2018-01-06T03:51:36.068Z,9.40
2018-01-06T03:54:07.828Z,9.40
2018-01-06T03:56:39.068Z,9.30
2018-01-06T03:59:11.228Z,9.30
2018-01-06T04:01:45.948Z,9.30
2018-01-06T04:04:17.646Z,9.30
2018-01-06T04:06:48.747Z,9.30
2018-01-06T04:09:19.588Z,9.30
2018-01-06T04:11:50.428Z,9.30
2018-01-06T04:14:20.127Z,9.30
2018-01-06T04:16:51.987Z,9.30
2018-01-06T04:19:23.028Z,9.30
2018-01-06T04:21:57.549Z,9.30
2018-01-06T04:24:30.448Z,9.30
2018-01-06T04:27:02.708Z,9.40
2018-01-06T04:29:36.308Z,9.40
2018-01-06T04:32:08.571Z,9.40
2018-01-06T04:34:39.008Z,9.40
2018-01-06T04:37:10.148Z,9.40
2018-01-06T04:39:45.708Z,9.40
2018-01-06T04:42:19.359Z,9.50
2018-01-06T04:44:51.568Z,9.60
2018-01-06T04:47:22.908Z,9.60
2018-01-06T04:49:55.388Z,9.50
2018-01-06T04:52:26.927Z,9.60
2018-01-06T04:54:58.288Z,9.60
2018-01-06T04:57:29.828Z,9.60
2018-01-06T05:00:05.688Z,9.60
2018-01-06T05:02:37.948Z,9.60
2018-01-06T05:05:12.588Z,9.50
2018-01-06T05:07:43.008Z,9.50
2018-01-06T05:10:15.171Z,9.40
2018-01-06T05:12:46.308Z,9.40
2018-01-06T05:15:18.309Z,9.30
2018-01-06T05:17:52.589Z,9.20
2018-01-06T05:20:24.148Z,9.10
2018-01-06T05:22:56.208Z,9.00
2018-01-06T05:25:26.228Z,8.90
2018-01-06T05:27:58.088Z,8.90
2018-01-06T05:30:30.148Z,8.80
2018-01-06T05:33:02.748Z,8.70
2018-01-06T05:35:34.789Z,8.70
2018-01-06T05:38:08.388Z,8.60
2018-01-06T05:40:39.530Z,8.60
2018-01-06T05:43:10.789Z,8.50
2018-01-06T05:45:42.428Z,8.40
2018-01-06T05:48:13.788Z,8.40
2018-01-06T05:50:45.948Z,8.30
2018-01-06T05:53:17.808Z,8.30
2018-01-06T05:55:49.868Z,8.30
2018-01-06T05:58:21.308Z,8.30
2018-01-06T06:00:53.690Z,8.30
2018-01-06T06:03:26.328Z,8.20
2018-01-06T06:06:01.308Z,8.10
2018-01-06T06:08:35.008Z,8.10
2018-01-06T06:11:05.848Z,8.00
2018-01-06T06:13:37.188Z,7.90
2018-01-06T06:16:09.148Z,7.90
2018-01-06T06:18:40.348Z,7.90
2018-01-06T06:21:11.848Z,8.00
2018-01-06T06:23:44.108Z,8.10
2018-01-06T06:26:15.770Z,8.00
2018-01-06T06:28:47.430Z,8.00
2018-01-06T06:31:22.248Z,7.90
2018-01-06T06:33:53.188Z,7.90
2018-01-06T06:36:24.308Z,7.90
2018-01-06T06:38:54.988Z,7.80
2018-01-06T06:41:27.456Z,8.60
2018-01-06T06:43:58.567Z,7.80
2018-01-06T06:46:29.368Z,7.80
2018-01-06T06:49:00.468Z,7.80
2018-01-06T06:51:32.388Z,7.70
2018-01-06T06:54:03.569Z,7.70
2018-01-06T06:56:37.048Z,7.70
2018-01-06T06:59:09.656Z,7.70
2018-01-06T07:01:44.308Z,7.70
2018-01-06T07:04:16.228Z,7.60
2018-01-06T07:06:49.308Z,7.60
2018-01-06T07:09:21.588Z,7.60
2018-01-06T07:11:53.011Z,7.60
2018-01-06T07:14:26.514Z,7.60
2018-01-06T07:16:57.167Z,7.60
2018-01-06T07:19:28.916Z,7.50
2018-01-06T07:21:59.637Z,7.60
2018-01-06T07:24:31.917Z,7.50
2018-01-06T07:27:03.156Z,7.60
2018-01-06T07:29:34.296Z,7.60
2018-01-06T07:32:16.324Z,7.50
2018-01-06T07:34:48.456Z,7.50
2018-01-06T07:37:20.936Z,7.60
2018-01-06T07:39:51.675Z,7.60
2018-01-06T07:42:23.017Z,7.60
2018-01-06T07:44:54.576Z,7.60
2018-01-06T07:47:28.276Z,7.60
2018-01-06T07:49:59.317Z,7.70
2018-01-06T07:52:31.596Z,7.60
2018-01-06T07:55:02.616Z,7.70
2018-01-06T07:57:34.076Z,7.70
2018-01-06T08:00:06.336Z,7.60
2018-01-06T08:02:36.676Z,7.70
2018-01-06T08:05:09.457Z,7.60
2018-01-06T08:07:41.715Z,7.60
2018-01-06T08:10:12.456Z,7.70
2018-01-06T08:12:44.356Z,7.70
2018-01-06T08:15:21.316Z,7.70
2018-01-06T08:18:01.236Z,7.70
2018-01-06T08:20:32.176Z,7.70
2018-01-06T08:23:10.336Z,7.70
2018-01-06T08:25:43.576Z,7.70
2018-01-06T08:28:15.213Z,7.70
2018-01-06T08:30:50.851Z,7.70
2018-01-06T08:33:28.328Z,7.70
2018-01-06T08:35:59.924Z,7.80
2018-01-06T08:38:30.766Z,7.80
2018-01-06T08:41:04.963Z,7.80
2018-01-06T08:43:38.683Z,7.80
2018-01-06T08:46:10.823Z,7.90
2018-01-06T08:48:43.205Z,8.00
2018-01-06T08:51:14.243Z,8.00
2018-01-06T08:53:44.683Z,8.00
2018-01-06T08:56:16.743Z,8.00
2018-01-06T08:58:48.343Z,8.00
2018-01-06T09:01:20.043Z,8.10
2018-01-06T09:03:50.883Z,8.10
2018-01-06T09:06:23.043Z,8.00
2018-01-06T09:08:55.003Z,7.90
2018-01-06T09:11:26.163Z,7.90
2018-01-06T09:13:57.188Z,7.90
2018-01-06T09:16:29.064Z,8.00
2018-01-06T09:18:59.984Z,7.90
2018-01-06T09:21:35.343Z,7.80
2018-01-06T09:24:07.604Z,7.70
2018-01-06T09:26:39.764Z,7.80
2018-01-06T09:29:12.043Z,7.80
2018-01-06T09:31:46.464Z,7.90
2018-01-06T09:34:25.805Z,8.00
2018-01-06T09:36:56.943Z,8.10
2018-01-06T09:39:30.843Z,8.20
2018-01-06T09:42:01.482Z,8.20
2018-01-06T09:44:33.644Z,8.40
2018-01-06T09:47:05.803Z,8.50
2018-01-06T09:49:37.663Z,8.50
2018-01-06T09:52:08.907Z,8.60
2018-01-06T09:54:40.063Z,8.70
2018-01-06T09:57:12.123Z,8.70
2018-01-06T09:59:43.266Z,8.80
2018-01-06T10:02:14.603Z,8.80
2018-01-06T10:04:45.643Z,8.80
2018-01-06T10:07:17.603Z,8.90
2018-01-06T10:09:48.689Z,9.00
2018-01-06T10:12:21.323Z,9.10
2018-01-06T10:14:51.443Z,9.10
2018-01-06T10:17:28.144Z,9.20
2018-01-06T10:20:00.602Z,9.40
2018-01-06T10:22:31.742Z,9.60
2018-01-06T10:25:03.703Z,9.70
2018-01-06T10:27:35.443Z,9.90
2018-01-06T10:30:09.463Z,10.00
2018-01-06T10:32:39.484Z,9.90
2018-01-06T10:35:11.403Z,10.40
2018-01-06T10:37:42.343Z,10.30
2018-01-06T10:40:13.383Z,10.60
2018-01-06T10:42:44.263Z,10.80
2018-01-06T10:45:18.683Z,11.00
2018-01-06T10:47:49.823Z,11.10
2018-01-06T10:50:22.303Z,11.30
2018-01-06T10:52:54.663Z,11.50
2018-01-06T10:55:25.690Z,11.70
2018-01-06T10:57:56.383Z,11.60
2018-01-06T11:00:34.383Z,12.00
2018-01-06T11:03:10.343Z,12.00
2018-01-06T11:05:43.684Z,12.10
2018-01-06T11:08:14.943Z,12.10
2018-01-06T11:10:53.367Z,12.10
2018-01-06T11:13:25.363Z,12.10
2018-01-06T11:15:59.123Z,11.70
2018-01-06T11:18:30.063Z,11.60
2018-01-06T11:21:00.883Z,11.50
2018-01-06T11:23:34.903Z,11.50
2018-01-06T11:26:08.403Z,11.50
2018-01-06T11:28:40.263Z,11.40
2018-01-06T11:31:13.403Z,11.20
2018-01-06T11:33:45.003Z,11.00
2018-01-06T11:36:23.004Z,10.90
2018-01-06T11:39:01.204Z,10.80
2018-01-06T11:41:32.045Z,10.80
2018-01-06T11:44:03.364Z,10.60
2018-01-06T11:46:38.363Z,10.60
2018-01-06T11:49:10.703Z,10.50
2018-01-06T11:51:41.323Z,10.40
2018-01-06T11:54:12.063Z,10.40
2018-01-06T11:56:44.123Z,10.40
2018-01-06T11:59:18.843Z,10.40
2018-01-06T12:01:50.103Z,10.40
2018-01-06T12:04:26.983Z,10.40
2018-01-06T12:06:58.123Z,10.30
2018-01-06T12:09:36.123Z,10.40
2018-01-06T12:12:07.664Z,10.40
2018-01-06T12:14:40.143Z,10.30
2018-01-06T12:17:13.385Z,10.40
2018-01-06T12:19:47.863Z,10.40
2018-01-06T12:22:21.404Z,10.50
2018-01-06T12:24:53.523Z,10.50
2018-01-06T12:27:26.103Z,10.50
2018-01-06T12:29:56.923Z,10.50
2018-01-06T12:32:29.503Z,10.50
2018-01-06T12:35:01.883Z,10.50
2018-01-06T12:37:32.928Z,10.50
2018-01-06T12:40:05.186Z,10.60
2018-01-06T12:42:37.967Z,10.70
2018-01-06T12:45:10.027Z,10.60
2018-01-06T12:47:45.067Z,10.60
2018-01-06T12:50:19.487Z,10.70
2018-01-06T12:52:51.967Z,10.70
2018-01-06T12:55:23.928Z,10.80
2018-01-06T12:58:03.367Z,10.80
2018-01-06T13:00:44.027Z,10.80
2018-01-06T13:03:16.087Z,10.80
2018-01-06T13:05:47.128Z,10.90
2018-01-06T13:08:18.267Z,10.90
2018-01-06T13:10:51.668Z,10.80
2018-01-06T13:13:28.374Z,10.80
2018-01-06T13:16:02.348Z,10.80
2018-01-06T13:18:33.387Z,10.80
2018-01-06T13:21:06.387Z,10.80
2018-01-06T13:23:38.408Z,10.80
2018-01-06T13:26:10.507Z,10.80
2018-01-06T13:28:43.386Z,10.80
2018-01-06T13:31:18.387Z,10.80
2018-01-06T13:33:50.587Z,10.80
2018-01-06T13:36:22.769Z,10.70
2018-01-06T13:38:53.707Z,10.70
2018-01-06T13:41:24.528Z,10.70
2018-01-06T13:43:56.907Z,10.60
2018-01-06T13:46:29.068Z,10.60
2018-01-06T13:49:00.508Z,10.70
2018-01-06T13:51:32.569Z,10.70
2018-01-06T13:54:08.747Z,10.70
2018-01-06T13:56:40.507Z,10.80
2018-01-06T13:59:10.308Z,10.90
2018-01-06T14:01:43.907Z,10.80
2018-01-06T14:04:14.847Z,10.90
2018-01-06T14:06:48.407Z,10.90
2018-01-06T14:09:22.147Z,10.90
2018-01-06T14:11:54.626Z,10.90
2018-01-06T14:14:27.206Z,10.90
2018-01-06T14:16:58.647Z,10.90
2018-01-06T14:19:31.847Z,10.90
2018-01-06T14:22:02.268Z,10.90
2018-01-06T14:24:34.346Z,10.90
2018-01-06T14:27:05.447Z,10.90
2018-01-06T14:29:37.407Z,10.90
2018-01-06T14:32:08.787Z,11.00
2018-01-06T14:34:41.867Z,11.00
2018-01-06T14:37:12.907Z,11.00
2018-01-06T14:39:44.167Z,11.00
2018-01-06T14:42:16.327Z,11.00
2018-01-06T14:44:46.149Z,11.00
2018-01-06T14:47:18.309Z,11.10
2018-01-06T14:49:50.409Z,11.10
2018-01-06T14:52:24.989Z,11.00
2018-01-06T14:54:57.369Z,10.90
2018-01-06T14:57:27.689Z,10.90
2018-01-06T15:00:00.269Z,10.90
2018-01-06T15:02:32.623Z,10.90
2018-01-06T15:05:08.417Z,10.90
2018-01-06T15:07:41.369Z,10.90
2018-01-06T15:10:12.509Z,10.90
2018-01-06T15:12:43.650Z,10.90
2018-01-06T15:15:16.849Z,10.90
2018-01-06T15:17:49.729Z,10.90
2018-01-06T15:20:21.789Z,11.00
2018-01-06T15:22:54.889Z,10.90
2018-01-06T15:25:27.710Z,10.90
2018-01-06T15:28:00.038Z,10.90
2018-01-06T15:30:31.273Z,10.90
2018-01-06T15:33:03.251Z,10.80
2018-01-06T15:35:35.511Z,10.70
2018-01-06T15:38:10.029Z,10.70
2018-01-06T15:40:41.789Z,10.60
2018-01-06T15:43:13.154Z,10.40
2018-01-06T15:45:45.109Z,10.30
2018-01-06T15:48:17.369Z,10.30
2018-01-06T15:50:49.409Z,10.30
2018-01-06T15:53:22.529Z,10.20
2018-01-06T15:55:56.732Z,10.20
2018-01-06T15:58:31.415Z,10.10
2018-01-06T16:01:02.494Z,10.10
2018-01-06T16:03:34.154Z,10.00
2018-01-06T16:06:05.290Z,10.00
2018-01-06T16:08:37.767Z,10.00
2018-01-06T16:11:14.237Z,10.00
2018-01-06T16:13:50.512Z,10.00
2018-01-06T16:16:22.273Z,10.00
2018-01-06T16:18:53.312Z,10.00
2018-01-06T16:21:25.172Z,10.00
2018-01-06T16:23:56.412Z,10.00
2018-01-06T16:26:28.414Z,10.00
2018-01-06T16:29:00.733Z,10.00
2018-01-06T16:31:31.772Z,10.00
2018-01-06T16:34:03.132Z,10.00
2018-01-06T16:36:37.652Z,10.00
2018-01-06T16:39:08.692Z,10.10
2018-01-06T16:41:40.032Z,10.00
2018-01-06T16:44:13.392Z,10.10
2018-01-06T16:46:45.455Z,10.10
2018-01-06T16:49:19.912Z,10.00
2018-01-06T16:51:51.052Z,10.00
2018-01-06T16:54:27.413Z,10.10
2018-01-06T17:00:00.940Z,10.10
2018-01-06T17:02:31.360Z,10.00
2018-01-06T17:05:03.340Z,10.00
2018-01-06T17:07:34.880Z,10.10
2018-01-06T17:10:06.740Z,10.10
2018-01-06T17:12:37.886Z,10.10
2018-01-06T17:15:08.920Z,10.00
2018-01-06T17:17:41.300Z,9.90
2018-01-06T17:20:14.982Z,10.00
2018-01-06T17:22:49.820Z,9.90
2018-01-06T17:25:21.280Z,10.00
2018-01-06T17:27:53.741Z,10.00
2018-01-06T17:30:24.900Z,10.00
2018-01-06T17:32:55.520Z,10.00
2018-01-06T17:35:28.440Z,10.00
2018-01-06T17:38:00.062Z,10.00
2018-01-06T17:40:31.100Z,10.00
2018-01-06T17:43:02.040Z,10.00
2018-01-06T17:45:35.740Z,10.10
2018-01-06T17:48:06.687Z,10.10
2018-01-06T17:50:38.747Z,10.10
2018-01-06T17:53:09.447Z,10.20
2018-01-06T17:55:41.548Z,10.20
2018-01-06T17:58:16.687Z,10.20
2018-01-06T18:00:49.268Z,10.10
2018-01-06T18:03:20.189Z,10.10
2018-01-06T18:05:51.027Z,10.00
2018-01-06T18:08:22.687Z,10.00
2018-01-06T18:10:54.127Z,10.00
2018-01-06T18:13:30.907Z,10.00
2018-01-06T18:16:04.088Z,9.90
2018-01-06T18:18:37.687Z,9.90
2018-01-06T18:21:09.248Z,9.90
2018-01-06T18:23:41.407Z,9.80
2018-01-06T18:26:12.247Z,9.90
2018-01-06T18:28:44.409Z,9.90
2018-01-06T18:31:15.348Z,9.90
2018-01-06T18:33:48.227Z,9.90
2018-01-06T18:36:21.727Z,9.90
2018-01-06T18:38:59.327Z,9.90
2018-01-06T18:41:30.988Z,9.80
2018-01-06T18:44:03.467Z,9.80
2018-01-06T18:46:35.849Z,9.80
2018-01-06T18:49:06.427Z,9.80
2018-01-06T18:51:37.608Z,9.90
2018-01-06T18:54:14.688Z,9.80
2018-01-06T18:56:45.488Z,9.80
2018-01-06T18:59:18.447Z,9.80
2018-01-06T19:01:54.667Z,9.80
2018-01-06T19:04:24.991Z,9.80
2018-01-06T19:06:56.128Z,9.80
2018-01-06T19:09:28.307Z,9.80
2018-01-06T19:11:59.127Z,9.80
2018-01-06T19:14:30.069Z,9.70
2018-01-06T19:17:07.368Z,9.70
2018-01-06T19:19:39.007Z,9.70
2018-01-06T19:22:10.147Z,9.70
2018-01-06T19:24:41.915Z,9.70
2018-01-06T19:27:16.328Z,9.70
2018-01-06T19:29:47.368Z,9.60
2018-01-06T19:32:17.787Z,9.60
2018-01-06T19:34:49.547Z,9.60
2018-01-06T19:37:21.108Z,9.60
2018-01-06T19:39:53.167Z,9.60
2018-01-06T19:42:25.348Z,9.50
2018-01-06T19:44:57.926Z,9.50
2018-01-06T19:47:28.747Z,9.50
2018-01-06T19:50:04.433Z,9.50
2018-01-06T19:52:38.456Z,9.40
2018-01-06T19:55:10.173Z,9.40
2018-01-06T19:57:41.313Z,9.40
2018-01-06T20:00:17.964Z,9.40
2018-01-06T20:02:48.914Z,9.30
2018-01-06T20:05:20.174Z,9.30
2018-01-06T20:07:51.813Z,9.30
2018-01-06T20:10:24.195Z,9.20
2018-01-06T20:12:56.153Z,9.20
2018-01-06T20:15:27.455Z,9.20
2018-01-06T20:18:00.794Z,9.30
2018-01-06T20:20:34.194Z,9.30
2018-01-06T20:23:06.038Z,9.30
2018-01-06T20:25:37.941Z,9.30
2018-01-06T20:28:10.178Z,9.30
2018-01-06T20:30:42.457Z,9.30
2018-01-06T20:33:13.437Z,9.30
2018-01-06T20:35:45.757Z,9.20
2018-01-06T20:38:17.717Z,9.10
2018-01-06T20:40:48.857Z,9.10
2018-01-06T20:43:22.978Z,9.00
2018-01-06T20:45:55.038Z,8.90
2018-01-06T20:48:27.100Z,9.00
2018-01-06T20:50:58.137Z,9.00
2018-01-06T20:53:29.327Z,9.00
2018-01-06T20:56:04.417Z,8.90
2018-01-06T20:58:34.957Z,9.00
2018-01-06T21:01:07.417Z,8.90
2018-01-06T21:03:37.937Z,8.90
2018-01-06T21:06:10.317Z,8.90
2018-01-06T21:08:41.460Z,8.90
2018-01-06T21:11:13.416Z,8.90
2018-01-06T21:13:44.576Z,8.90
2018-01-06T21:16:15.456Z,9.00
2018-01-06T21:18:46.516Z,8.90
2018-01-06T21:21:17.376Z,8.80
2018-01-06T21:23:48.116Z,8.80
2018-01-06T21:26:20.696Z,8.70
2018-01-06T21:28:52.958Z,8.60
2018-01-06T21:31:24.716Z,8.60
2018-01-06T21:33:55.958Z,8.50
2018-01-06T21:36:27.717Z,8.50
2018-01-06T21:38:58.756Z,8.60
2018-01-06T21:41:29.176Z,8.60
2018-01-06T21:44:05.460Z,8.60
2018-01-06T21:46:37.476Z,8.60
2018-01-06T21:49:09.178Z,8.60
2018-01-06T21:51:39.796Z,8.50
2018-01-06T21:54:12.175Z,8.50
2018-01-06T21:56:46.176Z,8.40
2018-01-06T21:59:20.296Z,8.40
2018-01-06T22:01:52.355Z,8.40
2018-01-06T22:04:26.257Z,8.30
2018-01-06T22:06:58.116Z,8.20
2018-01-06T22:09:31.218Z,8.20
2018-01-06T22:12:02.556Z,8.20
2018-01-06T22:14:36.156Z,8.10
2018-01-06T22:17:08.316Z,8.10
2018-01-06T22:19:39.564Z,8.10
2018-01-06T22:22:10.816Z,8.10
2018-01-06T22:24:41.956Z,8.10
2018-01-06T22:27:13.816Z,8.00
2018-01-06T22:29:49.557Z,8.00
2018-01-06T22:32:21.456Z,7.90
2018-01-06T22:34:53.896Z,7.90
2018-01-06T22:37:24.837Z,8.00
2018-01-06T22:39:56.816Z,8.00
2018-01-06T22:42:28.036Z,8.10
2018-01-06T22:45:05.956Z,8.10
2018-01-06T22:47:37.075Z,8.10
2018-01-06T22:50:07.817Z,8.10
2018-01-06T22:52:39.578Z,8.10
2018-01-06T22:55:12.516Z,8.10
2018-01-06T22:57:52.476Z,8.10
2018-01-06T23:00:26.216Z,8.10
2018-01-06T23:02:59.476Z,8.30
2018-01-06T23:05:32.197Z,8.30
2018-01-06T23:08:05.696Z,8.30
2018-01-06T23:10:37.240Z,8.30
2018-01-06T23:13:10.336Z,8.40
2018-01-06T23:15:42.896Z,8.20
2018-01-06T23:18:13.835Z,8.20
2018-01-06T23:20:45.696Z,8.20
2018-01-06T23:23:18.380Z,8.20
2018-01-06T23:25:51.056Z,8.20
2018-01-06T23:28:22.401Z,8.30
2018-01-06T23:30:54.976Z,8.20
2018-01-06T23:33:27.356Z,8.30
2018-01-06T23:36:02.449Z,8.40
2018-01-06T23:38:35.167Z,8.40
2018-01-06T23:41:07.510Z,8.40
2018-01-06T23:43:38.989Z,8.40
2018-01-06T23:46:10.490Z,8.40
2018-01-06T23:48:41.990Z,8.40
2018-01-06T23:51:13.870Z,8.40
2018-01-06T23:53:45.190Z,8.40
2018-01-06T23:56:17.530Z,8.40
2018-01-06T23:58:48.710Z,8.40
